KAMN/AMN METAR and TAF weather

Enter ICAO airport designator
Station Type Date Time Source
KAMN METAR 2020/09/28 08:34 UTC NOAA

KAMN 280834Z AUTO 30010G17KT 7SM RA BKN009 OVC015 13/11 A2976 RMK AO2


Station Type Date Time Source
KAMN Decoded METAR 2020/09/28 08:34 UTC NOAA

Alma, Gratiot Community Airport, MI, United States (KAMN) 43-19-19N 084-41-16W
Sep 28, 2020 - 04:34 AM EDT / 2020.09.28 0834 UTC
Wind: from the WNW (300 degrees) at 12 MPH (10 KT) gusting to 20 MPH (17 KT):0
Visibility: 7 mile(s):0
Sky conditions: overcast
Weather: rain
Temperature: 55 F (13 C)
Dew Point: 51 F (11 C)
Relative Humidity: 87%
Pressure (altimeter): 29.76 in. Hg (1007 hPa)
ob: KAMN 280834Z AUTO 30010G17KT 7SM RA BKN009 OVC015 13/11 A2976 RMK AO2
cycle: 8

Station Type Date Time Source
KAMN TAF UTC NOAA

Error!

Example: see airport list